Time;durP1;ratioP1;P1;durP2;ratioP2;P2;SDS_P1;SDS_P2;PMS_P1;PMS_P2;Temp;Humidity;BMP_temperature;BMP_pressure;BME280_temperature;BME280_humidity;BME280_pressure;Samples;Min_cycle;Max_cycle;Signal;HPM_P1;HPM_P2
2022/09/10 06:22:34;;;;;;;;;5.75;5.75;;;;;15.66;84.86;101337.88;5087397;27;49651;-71
2022/09/10 06:24:59;;;;;;;;;2.75;2.75;;;;;15.79;83.78;101322.97;5087881;27;49868;-70
2022/09/10 06:27:25;;;;;;;;;4.25;2.00;;;;;15.61;83.35;101256.66;5087872;27;49754;-68
2022/09/10 06:29:50;;;;;;;;;4.50;3.00;;;;;16.15;82.50;101309.13;5087746;27;50589;-71
2022/09/10 06:32:16;;;;;;;;;3.75;3.00;;;;;16.38;81.57;101314.56;5087675;27;49679;-68
2022/09/10 06:34:41;;;;;;;;;6.25;5.25;;;;;16.45;80.54;101310.19;5087329;27;49854;-69
2022/09/10 06:37:07;;;;;;;;;2.25;2.25;;;;;16.56;79.73;101309.34;5088047;27;55260;-68
2022/09/10 06:39:32;;;;;;;;;4.00;2.00;;;;;16.73;79.16;101321.84;5091450;27;61737;-69
2022/09/10 06:41:57;;;;;;;;;2.75;1.25;;;;;16.84;78.94;101331.63;5087871;27;49754;-67
2022/09/10 06:44:23;;;;;;;;;1.00;1.00;;;;;16.96;78.64;101332.53;5092879;27;50110;-68
2022/09/10 06:46:48;;;;;;;;;4.00;3.75;;;;;17.02;78.27;101335.22;5088061;27;52525;-68
2022/09/10 06:49:14;;;;;;;;;1.50;1.50;;;;;17.10;78.09;101338.78;5091470;27;62234;-67
2022/09/10 06:51:40;;;;;;;;;2.25;2.25;;;;;17.17;77.56;101337.91;5088112;27;49588;-67
2022/09/10 06:54:06;;;;;;;;;2.50;2.25;;;;;17.27;76.72;101345.00;5089417;27;49821;-68
2022/09/10 06:56:32;;;;;;;;;4.25;4.25;;;;;17.39;76.63;101341.53;5087180;27;49743;-69
2022/09/10 06:58:57;;;;;;;;;3.50;2.00;;;;;17.44;76.24;101337.97;5086785;27;49917;-68
2022/09/10 07:01:24;;;;;;;;;2.00;2.00;;;;;17.56;75.30;101338.88;5086907;27;49870;-73
2022/09/10 07:03:55;;;;;;;;;4.75;2.00;;;;;17.66;74.86;101340.66;5087030;27;49830;-68
2022/09/10 07:06:22;;;;;;;;;4.00;3.00;;;;;17.81;74.41;101355.75;5087244;27;49601;-68
2022/09/10 07:08:48;;;;;;;;;2.25;2.25;;;;;17.92;74.00;101361.97;5088166;27;50308;-68
2022/09/10 07:11:14;;;;;;;;;3.50;2.00;;;;;18.00;73.78;101363.75;5085866;27;49790;-67
2022/09/10 07:13:41;;;;;;;;;2.75;2.00;;;;;18.05;73.35;101366.41;5086883;27;49800;-70
2022/09/10 07:16:08;;;;;;;;;2.25;2.25;;;;;18.14;73.11;101355.75;5089159;27;49686;-69
2022/09/10 07:18:33;;;;;;;;;3.00;3.00;;;;;18.22;73.12;101358.41;5090340;27;50707;-66
2022/09/10 07:21:09;;;;;;;;;4.50;3.00;;;;;18.29;72.45;101358.41;5090789;27;50245;-66
2022/09/10 07:23:37;;;;;;;;;2.00;1.50;;;;;18.22;72.07;101327.41;5085538;27;50129;-67
2022/09/10 07:26:14;;;;;;;;;5.00;2.00;;;;;18.39;71.82;101372.56;5085806;27;50238;-66
2022/09/10 07:28:41;;;;;;;;;3.00;3.00;;;;;18.52;71.33;101366.31;5084574;27;50994;-67
2022/09/10 07:31:19;;;;;;;;;5.25;1.00;;;;;18.55;71.23;101374.31;5087154;27;49789;-67
2022/09/10 07:33:46;;;;;;;;;4.50;2.50;;;;;18.52;71.33;101355.69;5074172;27;49791;-68
2022/09/10 07:36:12;;;;;;;;;4.75;4.50;;;;;18.68;71.18;101376.97;5078107;27;49591;-67
2022/09/10 07:38:39;;;;;;;;;1.50;1.50;;;;;18.62;70.78;101356.56;5074451;27;51491;-72
2022/09/10 07:41:06;;;;;;;;;3.50;2.00;;;;;18.75;70.55;101362.78;5076051;27;49740;-72
2022/09/10 07:43:32;;;;;;;;;4.75;2.00;;;;;18.93;70.54;101380.44;5096245;27;49836;-71
2022/09/10 07:45:57;;;;;;;;;2.00;2.00;;;;;18.70;69.87;101343.28;5072767;27;49990;-71
2022/09/10 07:48:24;;;;;;;;;4.00;3.00;;;;;18.77;69.96;101351.22;5073101;27;51875;-71
2022/09/10 07:50:50;;;;;;;;;1.00;1.00;;;;;18.87;69.54;101368.94;5064727;28;50037;-69
2022/09/10 07:53:16;;;;;;;;;2.00;1.00;;;;;18.51;69.46;101316.69;5071923;28;49839;-72
2022/09/10 07:55:41;;;;;;;;;2.00;1.00;;;;;18.75;69.60;101342.38;5070731;28;50121;-65
2022/09/10 07:58:07;;;;;;;;;2.00;2.00;;;;;18.94;69.10;101351.16;5070961;27;50828;-65
2022/09/10 08:00:33;;;;;;;;;2.00;2.00;;;;;19.27;68.17;101403.34;5072437;28;49908;-67
2022/09/10 08:02:58;;;;;;;;;1.00;1.00;;;;;19.33;67.56;101384.69;5072449;28;49690;-66
2022/09/10 08:05:23;;;;;;;;;2.00;2.00;;;;;19.39;68.25;101381.09;5071812;28;55217;-68
2022/09/10 08:07:54;;;;;;;;;2.00;2.00;;;;;19.54;68.04;101375.69;5074070;28;53305;-71
2022/09/10 08:10:20;;;;;;;;;3.00;2.75;;;;;19.75;66.57;101395.13;5076785;28;49886;-67
2022/09/10 08:12:46;;;;;;;;;3.00;1.75;;;;;19.79;66.03;101397.78;5072193;28;49767;-67
2022/09/10 08:15:11;;;;;;;;;3.25;2.00;;;;;19.82;66.12;101395.06;5072533;28;49849;-69
2022/09/10 08:17:37;;;;;;;;;2.00;2.00;;;;;19.84;65.77;101385.28;5072053;28;49862;-64
2022/09/10 08:20:07;;;;;;;;;1.25;1.25;;;;;19.98;66.06;101399.41;5071883;28;49734;-67
2022/09/10 08:22:33;;;;;;;;;3.00;2.00;;;;;20.14;65.80;101396.59;5072172;28;50483;-69
2022/09/10 08:24:59;;;;;;;;;2.25;1.50;;;;;20.11;65.47;101343.31;5072104;28;49685;-70
2022/09/10 08:27:25;;;;;;;;;3.00;3.00;;;;;20.57;64.16;101400.69;5074855;28;50776;-68
2022/09/10 08:29:51;;;;;;;;;1.75;1.75;;;;;20.44;63.77;101372.34;5071934;28;49553;-69
2022/09/10 08:32:16;;;;;;;;;2.25;2.25;;;;;20.71;62.79;101410.31;5075803;27;49736;-70
2022/09/10 08:34:42;;;;;;;;;4.75;1.50;;;;;20.68;63.02;101394.34;5072859;27;50053;-68
2022/09/10 08:37:07;;;;;;;;;0.75;0.75;;;;;20.51;62.94;101350.06;5073204;28;49818;-68
2022/09/10 08:39:33;;;;;;;;;2.00;2.00;;;;;20.78;62.56;101386.22;5072064;28;50367;-69
2022/09/10 08:42:25;;;;;;;;;2.50;1.75;;;;;20.96;62.47;101414.47;5071626;27;50015;-70
2022/09/10 08:45:00;;;;;;;;;1.00;1.00;;;;;20.92;62.25;101418.06;5069849;28;50013;-65
2022/09/10 08:47:54;;;;;;;;;2.00;2.00;;;;;20.90;62.39;101419.88;5075395;27;51946;-69
2022/09/10 08:50:34;;;;;;;;;2.00;2.00;;;;;20.86;62.62;101421.72;5067375;28;50047;-65
2022/09/10 08:53:17;;;;;;;;;1.00;1.00;;;;;20.89;63.01;101425.25;5075027;27;49841;-65
2022/09/10 08:55:43;;;;;;;;;2.00;1.00;;;;;20.84;62.78;101422.59;5076272;27;50156;-66
2022/09/10 08:58:44;;;;;;;;;2.00;0.75;;;;;20.77;63.07;101431.59;5070130;28;51720;-66
2022/09/10 09:01:39;;;;;;;;;1.75;1.75;;;;;20.69;63.71;101437.00;5068538;28;49808;-66
2022/09/10 09:04:15;;;;;;;;;1.25;1.25;;;;;20.61;64.04;101424.63;5065055;28;49696;-65
2022/09/10 09:06:47;;;;;;;;;2.25;2.00;;;;;20.59;64.66;101435.34;5071426;27;49842;-65
2022/09/10 09:09:12;;;;;;;;;3.50;2.00;;;;;20.41;64.45;101415.03;5071222;28;50811;-66
2022/09/10 09:12:02;;;;;;;;;2.00;2.00;;;;;20.56;64.65;101440.72;5071463;28;49890;-65
2022/09/10 09:14:52;;;;;;;;;2.00;2.00;;;;;20.55;64.85;101439.78;5071596;27;49986;-66
2022/09/10 09:17:36;;;;;;;;;1.00;1.00;;;;;20.49;65.22;101434.53;5065383;27;49743;-65
2022/09/10 09:20:14;;;;;;;;;1.75;1.75;;;;;20.51;65.03;101435.41;5070758;28;49919;-65
2022/09/10 09:23:18;;;;;;;;;1.50;1.50;;;;;20.65;64.78;101451.25;5070749;28;49827;-68
2022/09/10 09:25:46;;;;;;;;;1.00;1.00;;;;;20.71;64.79;101445.88;5065946;28;49963;-67
2022/09/10 09:28:40;;;;;;;;;2.50;2.50;;;;;20.75;64.89;101457.38;5071291;28;49697;-68
2022/09/10 09:31:16;;;;;;;;;2.00;2.00;;;;;20.72;64.95;101449.41;5070935;28;50803;-66
2022/09/10 09:33:44;;;;;;;;;1.00;1.00;;;;;20.70;65.09;101465.44;5065683;28;49776;-66
2022/09/10 09:36:16;;;;;;;;;2.00;1.00;;;;;20.64;65.14;101465.50;5070341;28;49838;-65
2022/09/10 09:38:47;;;;;;;;;2.75;1.75;;;;;20.67;65.38;101464.59;5070965;28;49755;-65
2022/09/10 09:41:35;;;;;;;;;2.75;2.75;;;;;20.67;64.80;101467.28;5070654;28;50418;-65
2022/09/10 09:44:27;;;;;;;;;3.75;2.75;;;;;20.60;65.07;101452.22;5070900;28;49758;-64
2022/09/10 09:46:52;;;;;;;;;1.00;1.00;;;;;20.69;65.06;101465.47;5066113;28;50076;-65
2022/09/10 09:49:18;;;;;;;;;1.25;1.25;;;;;20.82;64.93;101475.13;5070849;28;49640;-65
2022/09/10 09:51:46;;;;;;;;;4.25;3.50;;;;;20.85;65.15;101472.44;5070487;28;50310;-66
2022/09/10 09:54:20;;;;;;;;;3.25;3.00;;;;;20.80;64.89;101463.56;5070831;28;49696;-68
2022/09/10 09:56:50;;;;;;;;;3.25;3.00;;;;;21.01;64.97;101479.34;5070460;28;49810;-65
2022/09/10 09:59:30;;;;;;;;;3.75;3.75;;;;;21.07;64.69;101484.63;5070924;27;49981;-68
2022/09/10 10:02:04;;;;;;;;;3.00;3.00;;;;;21.11;64.60;101485.47;5070349;28;50735;-67
2022/09/10 10:04:32;;;;;;;;;8.00;8.00;;;;;21.09;64.27;101480.16;5070550;28;50022;-71
2022/09/10 10:07:00;;;;;;;;;9.75;5.00;;;;;21.12;64.29;101488.13;5070013;28;50159;-70
2022/09/10 10:09:31;;;;;;;;;15.75;13.50;;;;;21.06;64.25;101485.53;5071068;28;49567;-67
2022/09/10 10:11:59;;;;;;;;;14.00;11.75;;;;;20.90;64.59;101467.03;5070288;28;49659;-68
2022/09/10 10:14:30;;;;;;;;;4.50;4.50;;;;;21.04;63.77;101483.81;5070403;28;50027;-69
2022/09/10 10:16:57;;;;;;;;;3.25;3.25;;;;;20.96;64.75;101481.22;5070586;28;49854;-68
2022/09/10 10:19:37;;;;;;;;;8.00;7.00;;;;;21.02;64.32;101494.47;5070651;28;49823;-67
2022/09/10 10:22:17;;;;;;;;;7.00;5.25;;;;;21.03;64.75;101495.34;5063372;28;49676;-64
2022/09/10 10:24:45;;;;;;;;;6.50;5.50;;;;;21.05;65.10;101498.91;5070346;28;49834;-64
2022/09/10 10:27:31;;;;;;;;;5.75;4.00;;;;;21.11;65.46;101488.16;5070469;28;49815;-68
2022/09/10 10:30:11;;;;;;;;;4.00;3.00;;;;;21.23;65.89;101485.38;5068597;28;49868;-68
2022/09/10 10:32:55;;;;;;;;;5.00;3.75;;;;;21.37;66.15;101470.06;5067980;28;50496;-66
2022/09/10 10:35:43;;;;;;;;;5.00;3.75;;;;;21.53;65.75;101485.94;5063144;28;49832;-66
2022/09/10 10:38:26;;;;;;;;;4.75;4.75;;;;;21.51;65.90;101469.00;5068638;28;49817;-67
2022/09/10 10:41:28;;;;;;;;;8.25;8.00;;;;;21.48;65.79;101437.88;5068278;28;49685;-69
2022/09/10 10:44:03;;;;;;;;;20.50;16.50;;;;;21.89;65.42;101481.84;5066579;28;52037;-68
2022/09/10 10:46:42;;;;;;;;;8.25;7.00;;;;;21.95;64.62;101477.31;5070125;28;49672;-71
2022/09/10 10:49:10;;;;;;;;;5.50;5.00;;;;;22.06;64.03;101479.81;5069207;28;49917;-68
2022/09/10 10:51:58;;;;;;;;;7.75;5.75;;;;;22.15;63.96;101471.69;5069583;28;49984;-68
2022/09/10 10:54:27;;;;;;;;;10.75;7.50;;;;;22.32;63.50;101474.09;5065971;28;50967;-75
2022/09/10 10:56:58;;;;;;;;;4.50;4.50;;;;;22.45;62.88;101472.97;5069863;28;49725;-65
2022/09/10 10:59:43;;;;;;;;;7.75;4.00;;;;;22.33;62.42;101451.78;5069855;28;49983;-65
2022/09/10 11:02:22;;;;;;;;;4.75;3.00;;;;;22.46;62.13;101472.06;5068494;28;50855;-67
2022/09/10 11:04:50;;;;;;;;;4.50;3.00;;;;;22.44;62.02;101471.22;5063601;28;49771;-69
2022/09/10 11:07:30;;;;;;;;;2.50;2.00;;;;;22.40;62.53;101464.16;5069753;28;49640;-70
2022/09/10 11:10:21;;;;;;;;;3.00;3.00;;;;;22.46;62.00;101469.38;5073064;28;49715;-65
2022/09/10 11:13:06;;;;;;;;;3.00;3.00;;;;;22.43;62.21;101458.75;5073356;27;49719;-65
2022/09/10 11:15:46;;;;;;;;;2.25;2.00;;;;;22.49;62.07;101453.28;5073058;28;50524;-66
2022/09/10 11:18:35;;;;;;;;;2.00;2.00;;;;;22.61;62.05;101473.59;5072943;27;49738;-65
2022/09/10 11:21:28;;;;;;;;;3.00;3.00;;;;;22.47;61.69;101440.84;5072889;28;49799;-74
2022/09/10 11:24:09;;;;;;;;;3.25;3.25;;;;;22.70;61.21;101462.72;5073188;28;49756;-65
2022/09/10 11:26:45;;;;;;;;;5.50;4.00;;;;;22.80;60.75;101461.66;5072730;28;51115;-67
2022/09/10 11:29:24;;;;;;;;;1.50;1.50;;;;;22.99;60.14;101461.34;5072935;28;49672;-65
2022/09/10 11:32:01;;;;;;;;;1.50;1.50;;;;;23.21;60.04;101465.34;5071877;28;49671;-66
2022/09/10 11:34:36;;;;;;;;;1.00;1.00;;;;;23.34;58.93;101453.44;5066746;28;49675;-63
2022/09/10 11:37:24;;;;;;;;;4.00;3.25;;;;;23.50;58.33;101440.63;5072485;28;49781;-65
2022/09/10 11:39:54;;;;;;;;;3.25;3.25;;;;;23.74;57.43;101454.41;5072919;28;49809;-64
2022/09/10 11:42:32;;;;;;;;;2.75;2.75;;;;;23.89;57.17;101452.28;5072733;28;50082;-66
2022/09/10 11:45:17;;;;;;;;;4.25;3.00;;;;;24.01;55.91;101451.09;5066312;28;49941;-64
2022/09/10 11:47:51;;;;;;;;;2.00;2.00;;;;;23.96;55.95;101447.66;5068090;28;49903;-66
2022/09/10 11:50:29;;;;;;;;;4.00;2.75;;;;;24.00;56.05;101454.69;5072852;27;49775;-65
2022/09/10 11:52:58;;;;;;;;;4.00;4.00;;;;;23.98;56.31;101452.06;5072441;28;49688;-67
2022/09/10 11:55:46;;;;;;;;;2.75;2.75;;;;;23.98;55.08;101448.50;5072799;28;49978;-72
2022/09/10 11:58:20;;;;;;;;;2.25;2.25;;;;;24.10;55.76;101453.56;5072348;27;49717;-64
2022/09/10 12:01:14;;;;;;;;;2.75;2.75;;;;;24.12;55.14;101445.47;5072520;28;49779;-64
2022/09/10 12:03:50;;;;;;;;;3.50;3.50;;;;;24.15;54.44;101458.81;5072411;27;49829;-63
2022/09/10 12:06:32;;;;;;;;;5.25;3.75;;;;;23.97;54.52;101449.41;5072441;28;49583;-65
2022/09/10 12:09:26;;;;;;;;;5.00;4.00;;;;;23.87;55.32;101455.91;5066794;28;49791;-63
2022/09/10 12:12:24;;;;;;;;;5.25;2.75;;;;;23.77;55.17;101460.59;5069098;28;49994;-63
2022/09/10 12:14:49;;;;;;;;;3.50;3.50;;;;;23.68;55.31;101447.41;5062868;28;49904;-64
2022/09/10 12:17:37;;;;;;;;;4.00;4.00;;;;;23.60;55.61;101441.34;5072470;28;49804;-64
2022/09/10 12:20:05;;;;;;;;;4.25;2.75;;;;;23.72;55.69;101446.41;5071670;28;49945;-62
2022/09/10 12:22:35;;;;;;;;;4.25;4.25;;;;;23.93;55.76;101448.63;5070503;28;49836;-64
2022/09/10 12:25:24;;;;;;;;;4.00;4.00;;;;;24.14;54.92;101440.97;5072163;28;50022;-65
2022/09/10 12:27:56;;;;;;;;;3.75;3.75;;;;;24.46;53.79;101449.13;5069612;27;50021;-65
2022/09/10 12:30:26;;;;;;;;;3.50;2.25;;;;;24.61;52.88;101446.94;5075033;27;49907;-65
2022/09/10 12:32:56;;;;;;;;;4.00;4.00;;;;;24.69;52.60;101448.50;5065832;27;49878;-65
2022/09/10 12:35:34;;;;;;;;;2.75;2.75;;;;;24.74;52.56;101446.59;5071790;28;49718;-66
2022/09/10 12:38:38;;;;;;;;;3.00;2.25;;;;;24.82;52.38;101452.63;5070394;28;50135;-64
2022/09/10 12:41:09;;;;;;;;;4.00;4.00;;;;;24.81;52.46;101423.13;5071493;27;49961;-65
2022/09/10 12:43:37;;;;;;;;;2.00;2.00;;;;;25.03;51.58;101450.31;5070993;27;49915;-63
2022/09/10 12:46:16;;;;;;;;;2.50;1.50;;;;;25.12;51.66;101442.00;5070542;28;50086;-65
2022/09/10 12:48:49;;;;;;;;;1.50;1.50;;;;;25.23;51.13;101441.69;5068335;28;49850;-64
2022/09/10 12:51:18;;;;;;;;;2.75;2.25;;;;;25.36;50.59;101448.44;5069171;28;50478;-64
2022/09/10 12:54:11;;;;;;;;;2.00;2.00;;;;;25.43;50.12;101436.59;5070143;28;50051;-64
2022/09/10 12:57:02;;;;;;;;;1.50;1.50;;;;;25.62;49.12;101447.66;5065470;28;49827;-64
2022/09/10 12:59:48;;;;;;;;;1.00;0.75;;;;;25.67;48.66;101443.91;5069565;28;49663;-77
2022/09/10 13:02:31;;;;;;;;;2.00;2.00;;;;;25.74;49.89;101432.97;5051302;28;50848;-70
2022/09/10 13:05:16;;;;;;;;;2.00;2.00;;;;;25.80;50.44;101439.06;5065589;28;49937;-72
2022/09/10 13:07:44;;;;;;;;;0.75;0.75;;;;;25.74;49.71;101430.28;5069237;27;49765;-73
2022/09/10 13:10:23;;;;;;;;;2.00;2.00;;;;;25.79;49.32;101456.13;5069601;27;49915;-73
2022/09/10 13:12:57;;;;;;;;;1.00;1.00;;;;;25.76;48.99;101442.75;5071293;27;49779;-71
2022/09/10 13:15:26;;;;;;;;;2.25;1.50;;;;;25.65;49.82;101426.91;5064827;28;49814;-71
2022/09/10 13:17:52;;;;;;;;;2.00;2.00;;;;;25.80;49.62;101459.69;5071354;28;49946;-71
2022/09/10 13:20:21;;;;;;;;;2.00;2.00;;;;;25.81;50.37;101467.72;5071511;28;49989;-71
2022/09/10 13:23:04;;;;;;;;;2.00;2.00;;;;;25.68;49.93;101463.63;5070125;27;49955;-71
2022/09/10 13:25:33;;;;;;;;;1.00;1.00;;;;;25.64;50.31;101464.63;5071050;28;50013;-70
2022/09/10 13:27:59;;;;;;;;;1.50;1.50;;;;;25.43;50.40;101451.84;5071360;28;49741;-71
2022/09/10 13:30:28;;;;;;;;;3.00;3.00;;;;;25.31;52.08;101459.34;5070422;28;49814;-71
2022/09/10 13:33:03;;;;;;;;;1.25;1.25;;;;;25.11;53.70;101467.09;5070038;28;49857;-70
2022/09/10 13:35:52;;;;;;;;;2.50;2.50;;;;;24.73;56.17;101474.38;5070939;28;49807;-70
2022/09/10 13:38:29;;;;;;;;;11.50;9.50;;;;;23.59;97.85;101507.47;5070933;27;49832;-72
2022/09/10 13:41:22;;;;;;;;;15.75;12.75;;;;;22.43;100.00;101506.00;5069620;28;49894;-71
2022/09/10 13:44:10;;;;;;;;;10.50;6.75;;;;;21.83;100.00;101492.63;5064141;28;50697;-71
2022/09/10 13:46:40;;;;;;;;;2.25;2.25;;;;;21.46;100.00;101497.59;5064728;28;50247;-72
2022/09/10 13:49:15;;;;;;;;;2.75;2.75;;;;;21.36;100.00;101486.13;5070986;27;49859;-71
2022/09/10 13:51:46;;;;;;;;;3.75;2.00;;;;;21.48;100.00;101501.09;5070789;28;49664;-71
2022/09/10 13:54:45;;;;;;;;;2.50;2.50;;;;;21.55;100.00;101490.34;5064897;28;49904;-71
2022/09/10 13:57:15;;;;;;;;;2.75;2.75;;;;;21.59;100.00;101496.50;5073993;28;49783;-72
2022/09/10 13:59:42;;;;;;;;;5.50;4.50;;;;;21.51;100.00;101482.38;5070963;28;49715;-67
2022/09/10 14:02:07;;;;;;;;;5.50;4.50;;;;;21.46;100.00;101474.41;5070270;28;49612;-67
2022/09/10 14:04:36;;;;;;;;;3.00;3.00;;;;;21.63;100.00;101500.94;5071487;27;50947;-65
2022/09/10 14:07:04;;;;;;;;;4.00;2.50;;;;;21.62;100.00;101501.84;5064829;27;49730;-65
2022/09/10 14:09:31;;;;;;;;;3.00;3.00;;;;;21.59;100.00;101508.09;5071428;27;49780;-67
2022/09/10 14:11:59;;;;;;;;;3.25;3.25;;;;;21.41;100.00;101478.94;5055145;27;50439;-67
2022/09/10 14:14:29;;;;;;;;;3.50;3.50;;;;;21.49;100.00;101482.38;5059762;27;50583;-73
2022/09/10 14:17:18;;;;;;;;;3.25;3.25;;;;;21.60;100.00;101491.13;5068010;27;50176;-71
2022/09/10 14:20:00;;;;;;;;;4.00;2.25;;;;;21.73;100.00;101497.22;5073056;28;49928;-70
2022/09/10 14:22:27;;;;;;;;;3.00;3.00;;;;;21.86;100.00;101489.91;5066689;27;49794;-76
2022/09/10 14:25:01;;;;;;;;;2.25;2.25;;;;;21.90;100.00;101480.94;5076361;27;49796;-70
2022/09/10 14:27:41;;;;;;;;;1.75;1.75;;;;;22.15;100.00;101484.16;5071591;27;49814;-86
2022/09/10 14:30:24;;;;;;;;;3.00;3.00;;;;;22.27;100.00;101449.19;5066105;27;49917;-69
2022/09/10 14:32:51;;;;;;;;;2.00;2.00;;;;;22.54;99.38;101470.13;5075266;27;49791;-69
2022/09/10 14:35:35;;;;;;;;;1.75;1.75;;;;;22.70;97.03;101473.44;5071404;27;50528;-69
2022/09/10 14:38:05;;;;;;;;;2.00;2.00;;;;;22.66;93.43;101468.16;5069661;27;49692;-69
2022/09/10 14:40:36;;;;;;;;;2.00;2.00;;;;;22.65;91.76;101472.63;5071794;27;50058;-88
2022/09/10 14:43:36;;;;;;;;;2.25;2.25;;;;;22.66;93.05;101477.06;5071493;28;49659;-69
2022/09/10 14:46:06;;;;;;;;;1.25;1.25;;;;;22.65;91.42;101477.09;5060142;28;49848;-69
2022/09/10 14:48:39;;;;;;;;;3.00;2.75;;;;;22.56;90.08;101479.00;5073794;28;49775;-68
2022/09/10 14:51:09;;;;;;;;;2.25;2.25;;;;;22.49;91.68;101481.84;5070897;28;49769;-68
2022/09/10 14:53:36;;;;;;;;;3.50;2.25;;;;;22.30;90.40;101475.03;5072167;28;49978;-69
2022/09/10 14:56:04;;;;;;;;;2.50;2.50;;;;;22.28;90.82;101486.63;5077086;27;50005;-68
2022/09/10 14:58:30;;;;;;;;;2.75;2.00;;;;;22.22;89.27;101489.41;5073357;27;49846;-69
2022/09/10 15:00:56;;;;;;;;;2.50;1.50;;;;;22.15;88.80;101484.16;5073134;27;49578;-72
2022/09/10 15:03:22;;;;;;;;;1.75;1.75;;;;;21.82;84.93;101467.72;5071426;27;50238;-69
2022/09/10 15:05:47;;;;;;;;;3.00;3.00;;;;;21.60;87.45;101437.72;5070113;28;51166;-70
2022/09/10 15:08:12;;;;;;;;;2.00;2.00;;;;;21.63;90.03;101451.03;5069515;28;49840;-69
2022/09/10 15:10:38;;;;;;;;;3.25;3.25;;;;;21.56;89.64;101427.09;5072461;27;49763;-70
2022/09/10 15:13:03;;;;;;;;;2.50;2.50;;;;;21.97;89.19;101480.81;5069538;27;49997;-68
2022/09/10 15:15:29;;;;;;;;;3.75;2.75;;;;;22.10;89.10;101483.34;5073079;27;51072;-68
2022/09/10 15:17:56;;;;;;;;;4.00;3.00;;;;;22.20;90.82;101483.19;5078087;27;50327;-70
2022/09/10 15:20:21;;;;;;;;;4.50;4.50;;;;;22.20;88.60;101487.66;5071340;28;49746;-70
2022/09/10 15:22:47;;;;;;;;;2.00;2.00;;;;;22.00;86.06;101472.78;5079592;27;49810;-69
2022/09/10 15:25:35;;;;;;;;;3.75;3.75;;;;;21.91;87.75;101472.03;5077791;27;51108;-69
2022/09/10 15:28:00;;;;;;;;;3.75;3.75;;;;;21.63;87.11;101448.38;5072271;27;49681;-68
2022/09/10 15:30:26;;;;;;;;;2.50;2.50;;;;;21.75;86.23;101492.75;5073352;27;49868;-68
2022/09/10 15:32:53;;;;;;;;;4.25;4.00;;;;;21.66;88.08;101483.06;5077625;27;49781;-69
2022/09/10 15:35:19;;;;;;;;;4.00;4.00;;;;;21.60;88.99;101466.22;5071080;27;49877;-69
2022/09/10 15:37:45;;;;;;;;;2.50;2.50;;;;;21.49;90.19;101441.44;5067911;27;49761;-72
2022/09/10 15:40:10;;;;;;;;;3.25;3.25;;;;;21.57;90.69;101463.59;5073982;28;50026;-70
2022/09/10 15:42:36;;;;;;;;;4.25;4.25;;;;;21.71;92.11;101482.97;5077754;27;49857;-70
2022/09/10 15:45:02;;;;;;;;;3.00;3.00;;;;;21.50;89.92;101459.22;5071846;27;50154;-73
2022/09/10 15:47:27;;;;;;;;;2.75;2.75;;;;;21.68;91.24;101497.28;5073802;28;49739;-74
2022/09/10 15:49:52;;;;;;;;;5.25;4.00;;;;;21.66;91.97;101512.44;5085345;27;49814;-79
2022/09/10 15:52:18;;;;;;;;;3.00;3.00;;;;;21.54;91.72;101493.91;5076052;27;49922;-86
2022/09/10 15:54:44;;;;;;;;;4.00;4.00;;;;;21.53;89.39;101505.50;5074186;28;49724;-75
2022/09/10 15:57:09;;;;;;;;;3.00;3.00;;;;;21.44;90.69;101502.94;5065609;28;49682;-81
2022/09/10 15:59:34;;;;;;;;;4.00;3.50;;;;;21.33;89.11;101504.88;5074915;27;49979;-85
2022/09/10 16:02:00;;;;;;;;;4.00;4.00;;;;;21.22;89.89;101491.56;5067741;27;49843;-78
2022/09/10 16:04:27;;;;;;;;;3.00;3.00;;;;;21.06;87.75;101479.31;5076669;28;50527;-75
2022/09/10 16:06:52;;;;;;;;;2.00;2.00;;;;;21.06;88.71;101514.03;5068811;27;49795;-82
2022/09/10 16:09:17;;;;;;;;;4.00;4.00;;;;;20.84;90.40;101500.91;5062639;27;56749;-75
2022/09/10 16:11:44;;;;;;;;;8.75;5.25;;;;;20.85;90.28;101518.69;5085836;27;49841;-87
2022/09/10 16:14:12;;;;;;;;;4.25;4.00;;;;;20.75;91.46;101517.00;5085716;27;49915;-80
2022/09/10 16:16:38;;;;;;;;;3.25;3.25;;;;;20.57;93.19;101494.03;5085602;27;50069;-73
2022/09/10 16:19:04;;;;;;;;;4.00;2.00;;;;;20.55;93.28;101489.59;5076923;27;50140;-73
2022/09/10 16:21:35;;;;;;;;;3.00;3.00;;;;;20.61;92.54;101510.88;5074350;27;49855;-71
2022/09/10 16:24:01;;;;;;;;;3.00;3.00;;;;;20.50;94.74;101486.09;5088556;27;50445;-71
2022/09/10 16:26:33;;;;;;;;;3.00;2.25;;;;;20.63;94.93;101501.09;5074355;28;49589;-68
2022/09/10 16:29:01;;;;;;;;;2.75;2.75;;;;;20.70;95.74;101507.25;5080210;27;49580;-68
2022/09/10 16:31:31;;;;;;;;;1.75;1.75;;;;;20.58;93.91;101495.81;5073313;27;49913;-68
2022/09/10 16:33:58;;;;;;;;;4.50;4.50;;;;;20.73;93.78;101509.88;5071356;28;50270;-67
2022/09/10 16:36:24;;;;;;;;;1.75;1.75;;;;;20.70;93.69;101504.59;5072061;27;49562;-71
2022/09/10 16:38:53;;;;;;;;;3.50;2.00;;;;;20.61;90.99;101499.34;5072702;27;49884;-67
2022/09/10 16:41:19;;;;;;;;;3.75;3.00;;;;;20.46;88.87;101503.91;5071962;28;50117;-68
2022/09/10 16:43:44;;;;;;;;;3.25;3.25;;;;;20.43;89.80;101503.91;5080506;27;51253;-67
2022/09/10 16:46:11;;;;;;;;;4.00;4.00;;;;;20.58;91.74;101519.81;5066393;28;61111;-66
2022/09/10 16:48:38;;;;;;;;;3.75;3.75;;;;;20.58;93.77;101505.59;5078756;27;49715;-70
2022/09/10 16:51:15;;;;;;;;;3.00;3.00;;;;;20.67;93.48;101508.19;5078016;27;49783;-68
2022/09/10 16:53:43;;;;;;;;;3.25;3.25;;;;;20.67;91.43;101521.53;5068659;28;49870;-66
2022/09/10 16:56:11;;;;;;;;;4.00;4.00;;;;;20.55;93.38;101506.47;5073499;27;50027;-68
2022/09/10 16:58:37;;;;;;;;;3.00;2.00;;;;;20.58;94.00;101519.81;5079511;27;49959;-69
2022/09/10 17:01:08;;;;;;;;;5.00;3.00;;;;;20.40;94.16;101501.25;5079723;27;49808;-69
2022/09/10 17:03:34;;;;;;;;;2.25;2.25;;;;;20.49;95.05;101527.88;5078664;27;50025;-69
2022/09/10 17:06:00;;;;;;;;;7.00;7.00;;;;;20.43;94.92;101530.59;5070515;27;49786;-67
2022/09/10 17:08:27;;;;;;;;;4.00;2.00;;;;;20.46;95.58;101530.59;5075480;27;50090;-70
2022/09/10 17:10:54;;;;;;;;;4.00;2.75;;;;;20.43;95.34;101522.59;5071057;27;50143;-69
2022/09/10 17:13:20;;;;;;;;;4.25;3.00;;;;;20.53;95.63;101531.41;5071012;27;50763;-66
2022/09/10 17:15:46;;;;;;;;;3.00;3.00;;;;;20.58;95.84;101534.94;5071057;27;49816;-67
2022/09/10 17:18:11;;;;;;;;;3.75;3.75;;;;;20.57;nan;101534.06;5069983;28;49850;-66
2022/09/10 17:20:38;;;;;;;;;3.75;3.75;;;;;20.51;95.09;101518.09;5070442;27;49976;-68
2022/09/10 17:23:04;;;;;;;;;4.50;4.50;;;;;20.52;93.83;101534.97;5070580;28;49920;-67
2022/09/10 17:25:30;;;;;;;;;6.50;5.00;;;;;20.37;93.74;101524.41;5070582;27;49889;-68
2022/09/10 17:27:56;;;;;;;;;4.00;4.00;;;;;20.33;93.76;101527.97;5073374;27;49990;-68
2022/09/10 17:30:21;;;;;;;;;3.50;3.50;;;;;20.28;93.47;101530.69;5080654;27;49775;-66
2022/09/10 17:32:47;;;;;;;;;5.00;5.00;;;;;20.08;93.86;101519.28;5078627;27;50623;-68
2022/09/10 17:35:12;;;;;;;;;4.00;4.00;;;;;20.05;93.69;101517.50;5071858;27;49986;-69
2022/09/10 17:37:37;;;;;;;;;3.00;2.00;;;;;19.99;92.24;101518.44;5075764;27;49821;-64
2022/09/10 17:40:04;;;;;;;;;5.75;5.00;;;;;19.96;92.83;101528.19;5085990;27;49627;-64
2022/09/10 17:42:29;;;;;;;;;5.00;3.50;;;;;19.88;92.96;101528.25;5085647;27;51793;-71
2022/09/10 17:44:55;;;;;;;;;4.25;4.25;;;;;19.75;93.44;101529.19;5084333;27;49569;-71
2022/09/10 17:47:20;;;;;;;;;3.75;3.75;;;;;19.65;93.48;101522.16;5074434;27;65012;-66
2022/09/10 17:49:45;;;;;;;;;8.50;8.00;;;;;19.56;93.61;101514.19;5071893;27;49765;-65
2022/09/10 17:52:12;;;;;;;;;9.00;8.00;;;;;19.59;94.35;101535.47;5084925;27;51613;-65
2022/09/10 17:54:37;;;;;;;;;9.50;9.00;;;;;19.47;93.61;101528.41;5076912;27;49984;-66
2022/09/10 17:57:02;;;;;;;;;11.00;10.00;;;;;19.47;94.22;101544.38;5075374;27;50049;-79
2022/09/10 17:59:29;;;;;;;;;9.00;7.25;;;;;19.37;93.63;101537.31;5070735;27;49852;-65
2022/09/10 18:01:56;;;;;;;;;5.50;5.50;;;;;19.27;94.22;101538.22;5077290;27;50501;-69
2022/09/10 18:04:22;;;;;;;;;7.00;7.00;;;;;19.11;94.62;101524.09;5078761;27;49821;-75
2022/09/10 18:06:47;;;;;;;;;6.75;6.75;;;;;19.17;94.70;101545.34;5077941;27;49622;-75
2022/09/10 18:09:14;;;;;;;;;6.50;6.50;;;;;19.09;94.74;101544.47;5077323;27;50583;-65